首页
METAR-TAF:

METAR-TAF

机场 :

蘭契, 印度

纬度: 23-18-51N, 经度: 85-19-18E, 海拔: 646米

当前天气观测

该预报发布于29分钟前的17:00 UTC
风速5节,风向西转西南
温度 31°C
湿度 59%
气压 1004 hPa
能見度: 4000
散云层高于2000英尺
少量云层高于3000英尺, 积雨云.
多云层高于10000英尺
霾,

METAR: VERC 181700Z 25005KT 4000 HZ SCT020 FEW030CB BKN100 31/22 Q1004 NOSIG

时间: 22:59 (17:29 UTC)

预报

该预报发布于9小时和29分钟前的08:00 UTC
预报有效从18日的 09点(UTC)到 18日的 18点(UTC)
风速10节,风向西
能見度: 5000
散云层高于2000英尺
多云层高于10000英尺
成为
从 18日的 14点(UTC)到 18日的 16点(UTC)
能見度: 3000
霾,

TAF: VERC 180800Z 1809/1818 26010KT 5000 SCT020 BKN100 BECMG 1814/1816 3000 HZ

超过4000个机场的气象观测和天气预报(METAR&TAF报告)。

可查询的气象台以黄色和红色小点在地图上表示。

将鼠标移到小点上方,可查看气象台名称。

然后点击查看天气观测和预报。

如需切换地图:点击带黑十字的绿色按钮放大地图;点击带横线的绿色按钮缩小地图;或者点击绿色箭头查看邻近地区的地图。


METAR-TAF: